• Join FlightAware (Why Join?)
  • Login
  • US Flag 
08:18AM EDT


 

Airport Tracker/Info


-or-


 

Live Flight TrackerFlight Track Log ✈ OPT330 ✈ 26-Apr-2014 ✈ KMHR - KFNL

Flight Track Log - Related Links

Times and Time Zones

All times are in EDT time to prevent confusion due to time zone crossing. See the OPT330 flight status page for this flight to view local times or setup timezone preferences in your user account.

Time Position Orientation Groundspeed Altitude Reporting Facility
EDT Latitude Longitude Course Direction KTS MPH feet Rate Location/Type
07:27PM 38.5016 -121.2976 86° East 296 341 12,900  Level FlightAware ADS-B (KMHR)
07:33PM 38.4505 -120.3778 86° East 411 473 27,500 2,520 Climbing FlightAware ADS-B (KAHC)
07:34PM 38.4637 -120.1514 86° East 440 506 30,400 2,220 Climbing FlightAware ADS-B (KAHC)
07:35PM 38.4684 -120.0663 86° East 431 496 31,900 2,520 Climbing FlightAware ADS-B (KAHC)
07:35PM 38.4725 -119.9918 86° East 429 494 33,300 2,220 Climbing FlightAware ADS-B (KAHC)
07:36PM 38.4757 -119.9342 86° East 426 490 34,400 2,340 Climbing FlightAware ADS-B (KAHC)
07:37PM 38.4861 -119.7387 86° East 402 463 37,100 2,100 Climbing FlightAware ADS-B (KAHC)
07:37PM 38.4916 -119.6398 86° East 406 467 38,200 1,500 Climbing FlightAware ADS-B (KAHC)
07:38PM 38.4954 -119.5697 86° East 405 466 38,900 1,320 Climbing FlightAware ADS-B (KAHC)
07:39PM 38.5004 -119.4736 86° East 408 470 39,800 1,200 Climbing FlightAware ADS-B (KAHC)
07:39PM 38.5050 -119.3824 87° East 406 467 40,500 1,020 Climbing FlightAware ADS-B (KAHC)
07:40PM 38.5086 -119.3105 87° East 407 468 41,000 960 Climbing FlightAware ADS-B (KAHC)
07:40PM 38.5131 -119.2197 87° East 409 471 41,600 960 Climbing FlightAware ADS-B (KAHC)
07:41PM 38.5167 -119.1467 87° East 409 471 42,100 1,080 Climbing FlightAware ADS-B (KAHC)
07:42PM 38.5214 -119.0465 87° East 406 467 42,900 1,080 Climbing FlightAware ADS-B (KAHC)
07:42PM 38.5248 -118.9753 87° East 404 465 43,400 960 Climbing FlightAware ADS-B (KAHC)
07:43PM 38.5295 -118.8760 87° East 398 458 44,100 1,080 Climbing FlightAware ADS-B (KAHC)
07:43PM 38.5326 -118.8061 87° East 392 451 44,700 120 Climbing FlightAware ADS-B (KAHC)
07:49PM 38.5602 -117.9609 95° East 424 488 45,000  Climbing FlightAware ADS-B (KVGT)
07:50PM 38.5538 -117.8726 95° East 425 489 45,000  Level FlightAware ADS-B (KVGT)
07:50PM 38.5476 -117.7848 95° East 425 489 45,000  Level FlightAware ADS-B (KVGT)
07:51PM 38.5406 -117.6891 94° East 425 489 45,000  Level FlightAware ADS-B (KVGT)
07:51PM 38.5345 -117.6060 94° East 424 488 45,000  Level FlightAware ADS-B (KVGT)
07:52PM 38.5273 -117.5094 94° East 425 489 45,000  Level FlightAware ADS-B (KVGT)
07:53PM 38.5204 -117.4193 95° East 425 489 45,000  Level FlightAware ADS-B (KVGT)
07:53PM 38.5140 -117.3355 95° East 423 487 45,000  Level FlightAware ADS-B (KVGT)
07:54PM 38.5065 -117.2393 95° East 423 487 45,000  Level FlightAware ADS-B (KVGT)
07:54PM 38.4996 -117.1498 95° East 423 487 45,000  Level FlightAware ADS-B (KVGT)
07:55PM 38.4924 -117.0586 95° East 423 487 45,000  Level FlightAware ADS-B (KVGT)
07:56PM 38.4855 -116.9716 95° East 424 488 45,000  Level FlightAware ADS-B (KVGT)
07:56PM 38.4780 -116.8786 95° East 423 487 45,000  Level FlightAware ADS-B (KVGT)
07:57PM 38.4634 -116.7004 95° East 421 484 45,000  Level FlightAware ADS-B (KVGT)
07:58PM 38.4560 -116.6108 95° East 419 482 45,000  Level FlightAware ADS-B (KVGT)
07:59PM 38.4485 -116.5215 95° East 418 481 45,000  Level FlightAware ADS-B (KVGT)
07:59PM 38.4410 -116.4320 95° East 418 481 45,000  Level FlightAware ADS-B (KVGT)
08:00PM 38.4334 -116.3423 95° East 416 479 45,000  Level FlightAware ADS-B (KVGT)
08:00PM 38.4266 -116.2632 95° East 415 478 45,000  Level FlightAware ADS-B (KVGT)
08:01PM 38.4200 -116.1967 95° East 417 480 45,000  Level Salt Lake Center
08:02PM 38.4075 -116.0511 96° East 416 479 45,000  Level Salt Lake Center
08:03PM 38.3944 -115.9061 97° East 412 474 45,000  Level Salt Lake Center
08:04PM 38.3819 -115.7614 96° East 412 474 45,000  Level Salt Lake Center
08:05PM 38.3658 -115.5886 97° East 411 473 45,000  Level Salt Lake Center
08:11PM 38.2859 -114.7477 97° East 407 468 45,000  Level FlightAware ADS-B
08:12PM 38.2678 -114.5672 97° East 406 467 45,000  Level FlightAware ADS-B
08:13PM 38.2698 -114.5873 97° East 407 468 45,000  Level FlightAware ADS-B
08:13PM 38.2524 -114.4155 97° East 407 468 45,000  Level FlightAware ADS-B
08:14PM 38.2559 -114.3284 83° East 401 461 45,000  Level FlightAware ADS-B
08:15PM 38.2641 -114.2344 84° East 402 463 45,000  Level FlightAware ADS-B
08:15PM 38.2699 -114.1634 84° East 405 466 45,000  Level FlightAware ADS-B
08:15PM 38.2735 -114.1197 85° East 402 463 45,000  Level FlightAware ADS-B (KVGT)
08:16PM 38.2796 -114.0461 84° East 404 465 45,000  Level FlightAware ADS-B
08:16PM 38.2854 -113.9741 84° East 403 464 45,000  Level FlightAware ADS-B
08:17PM 38.2916 -113.8997 84° East 404 465 45,000  Level FlightAware ADS-B
08:17PM 38.2975 -113.8261 84° East 404 465 45,000  Level FlightAware ADS-B
08:18PM 38.3058 -113.7239 84° East 405 466 45,000  Level FlightAware ADS-B
08:19PM 38.3114 -113.6528 84° East 406 467 45,000  Level FlightAware ADS-B
08:19PM 38.3196 -113.5487 84° East 407 468 45,000  Level FlightAware ADS-B
08:20PM 38.3252 -113.4770 84° East 408 470 45,000  Level FlightAware ADS-B
08:21PM 38.3332 -113.3746 85° East 409 471 45,000  Level FlightAware ADS-B
08:21PM 38.3387 -113.3021 85° East 408 470 45,000  Level FlightAware ADS-B
08:22PM 38.3462 -113.2020 85° East 407 468 45,000  Level FlightAware ADS-B
08:22PM 38.3517 -113.1291 85° East 407 468 45,000  Level FlightAware ADS-B
08:23PM 38.3590 -113.0320 85° East 406 467 45,000  Level FlightAware ADS-B (KBTF)
08:24PM 38.3707 -112.9574 76° East 403 464 45,000  Level FlightAware ADS-B
08:24PM 38.3891 -112.8584 77° East 403 464 45,000  Level FlightAware ADS-B
08:25PM 38.4015 -112.7905 77° East 403 464 45,000  Level FlightAware ADS-B
08:25PM 38.4168 -112.7065 78° East 402 463 45,000  Level FlightAware ADS-B (KBTF)
08:26PM 38.4229 -112.6734 77° East 403 464 45,000  Level FlightAware ADS-B
08:28PM 38.4907 -112.2977 77° East 405 466 45,000  Level FlightAware ADS-B
08:29PM 38.5151 -112.1606 77° East 407 468 45,000  Level FlightAware ADS-B
08:30PM 38.5295 -112.0790 77° East 407 468 45,000  Level FlightAware ADS-B
08:31PM 38.5453 -111.9893 77° East 408 470 45,000  Level FlightAware ADS-B
08:31PM 38.5576 -111.9192 78° East 408 470 45,000  Level FlightAware ADS-B
08:32PM 38.5898 -111.7347 78° East 410 472 45,000  Level FlightAware ADS-B
08:33PM 38.6179 -111.5719 78° East 409 471 45,000  Level FlightAware ADS-B
08:35PM 38.6467 -111.4033 78° East 409 471 45,000  Level FlightAware ADS-B
08:36PM 38.6766 -111.2264 78° East 409 471 45,000  Level FlightAware ADS-B (KMTJ)
08:37PM 38.6938 -111.1241 78° East 413 475 45,000  Level FlightAware ADS-B
08:37PM 38.7133 -111.0080 78° East 412 474 45,000  Level FlightAware ADS-B (KMTJ)
08:38PM 38.7250 -110.9373 78° East 412 474 45,000  Level FlightAware ADS-B (KMTJ)
08:38PM 38.7368 -110.8660 78° East 412 474 45,000  Level FlightAware ADS-B (KMTJ)
08:39PM 38.7494 -110.7897 78° East 413 475 45,000  Level FlightAware ADS-B (KMTJ)
08:40PM 38.7622 -110.7117 78° East 413 475 45,000  Level FlightAware ADS-B (KMTJ)
08:40PM 38.7755 -110.6309 78° East 413 475 45,000  Level FlightAware ADS-B (KMTJ)
08:41PM 38.7910 -110.5355 78° East 414 476 45,000  Level FlightAware ADS-B (KMTJ)
08:41PM 38.8033 -110.4598 78° East 413 475 45,000  Level FlightAware ADS-B (KMTJ)
08:42PM 38.8156 -110.3802 81° East 414 476 45,000  Level FlightAware ADS-B
08:42PM 38.8231 -110.3029 83° East 415 478 45,000  Level FlightAware ADS-B (KMTJ)
08:43PM 38.8330 -110.2031 83° East 415 478 45,000  Level FlightAware ADS-B (KMTJ)
08:44PM 38.8406 -110.1298 83° East 415 478 45,000  Level FlightAware ADS-B (KMTJ)
08:44PM 38.8491 -110.0468 83° East 415 478 45,000  Level FlightAware ADS-B (KMTJ)
08:45PM 38.8564 -109.9763 83° East 416 479 45,000  Level FlightAware ADS-B (KMTJ)
08:45PM 38.8641 -109.9001 83° East 415 478 45,000  Level FlightAware ADS-B (KMTJ)
08:46PM 38.8725 -109.8178 83° East 415 478 45,000  Level FlightAware ADS-B (KMTJ)
08:46PM 38.8801 -109.7424 83° East 415 478 45,000  Level FlightAware ADS-B (KMTJ)
08:47PM 38.8870 -109.6722 83° East 415 478 45,000  Level FlightAware ADS-B (KMTJ)
08:47PM 38.8960 -109.5819 83° East 415 478 45,000  Level FlightAware ADS-B (KMTJ)
08:48PM 38.9032 -109.5078 83° East 416 479 45,000  Level FlightAware ADS-B (KMTJ)
08:48PM 38.9116 -109.4225 83° East 415 478 45,000  Level FlightAware ADS-B (KMTJ)
08:49PM 38.9187 -109.3491 83° East 416 479 45,000  Level FlightAware ADS-B (KMTJ)
08:49PM 38.9269 -109.2629 83° East 416 479 45,000  Level FlightAware ADS-B (KMTJ)
08:50PM 38.9336 -109.1923 83° East 417 480 45,000  Level FlightAware ADS-B (KMTJ)
08:50PM 38.9409 -109.1158 83° East 416 479 45,000  Level FlightAware ADS-B (KMTJ)
08:51PM 38.9478 -109.0428 83° East 416 479 45,000  Level FlightAware ADS-B (KMTJ)
08:51PM 38.9547 -108.9695 83° East 416 479 45,000  Level FlightAware ADS-B (KMTJ)
08:52PM 38.9613 -108.8983 83° East 415 478 45,000  Level FlightAware ADS-B (KMTJ)
08:52PM 38.9683 -108.8224 83° East 415 478 45,000  Level FlightAware ADS-B (KMTJ)
08:53PM 38.9750 -108.7495 83° East 414 476 45,000  Level FlightAware ADS-B (KMTJ)
08:53PM 38.9817 -108.6757 84° East 413 475 45,000  Level FlightAware ADS-B (KMTJ)
08:54PM 38.9901 -108.5833 84° East 413 475 45,000  Level FlightAware ADS-B (KMTJ)
08:55PM 38.9970 -108.5061 84° East 411 473 45,000  Level FlightAware ADS-B (KMTJ)
08:55PM 39.0039 -108.4279 84° East 411 473 45,000  Level FlightAware ADS-B (KMTJ)
08:56PM 39.0119 -108.3367 84° East 410 472 45,000  Level FlightAware ADS-B (KMTJ)
08:56PM 39.0199 -108.2455 84° East 408 470 45,000  Level FlightAware ADS-B (KMTJ)
08:57PM 39.0264 -108.1708 84° East 409 471 45,000  Level FlightAware ADS-B (KMTJ)
08:57PM 39.0327 -108.0975 84° East 408 470 45,000  Level FlightAware ADS-B (KMTJ)
08:58PM 39.0389 -108.0250 84° East 409 471 45,000  Level FlightAware ADS-B (KMTJ)
08:58PM 39.0451 -107.9508 84° East 409 471 45,000  Level FlightAware ADS-B (KMTJ)
08:59PM 39.0511 -107.8789 84° East 408 470 45,000  Level FlightAware ADS-B (KMTJ)
09:00PM 39.0586 -107.7896 84° East 407 468 45,000  Level FlightAware ADS-B
09:00PM 39.0647 -107.7159 84° East 406 467 45,000  Level FlightAware ADS-B (KMTJ)
09:01PM 39.0706 -107.6433 84° East 407 468 45,000  Level FlightAware ADS-B (KMTJ)
09:01PM 39.0765 -107.5710 84° East 408 470 45,000  Level FlightAware ADS-B (KMTJ)
09:02PM 39.0825 -107.4967 84° East 408 470 45,000  Level FlightAware ADS-B (KMTJ)
09:02PM 39.0885 -107.4214 84° East 408 470 45,000  Level FlightAware ADS-B (KMTJ)
09:03PM 39.0942 -107.3492 84° East 408 470 45,000  Level FlightAware ADS-B (KMTJ)
09:03PM 39.0999 -107.2769 84° East 408 470 45,000  Level FlightAware ADS-B (KMTJ)
09:04PM 39.1062 -107.1966 84° East 408 470 45,000  Level FlightAware ADS-B (KMTJ)
09:04PM 39.1117 -107.1261 84° East 408 470 45,000 -540 Level FlightAware ADS-B (KEIK)
09:05PM 39.1173 -107.0518 85° East 419 482 44,500 -1,800 Descending FlightAware ADS-B (KEIK)
09:05PM 39.1241 -106.9627 84° East 431 496 43,100 -2,040 Descending FlightAware ADS-B (KEIK)
09:06PM 39.1304 -106.8793 85° East 429 494 42,200 -1,800 Descending FlightAware ADS-B (KMTJ)
09:06PM 39.1360 -106.8035 85° East 431 496 41,200 -2,280 Descending FlightAware ADS-B (KMTJ)
09:07PM 39.1422 -106.7204 85° East 439 505 39,900 -2,580 Descending FlightAware ADS-B (KMTJ)
09:07PM 39.1484 -106.6346 85° East 438 504 38,500 -2,520 Descending FlightAware ADS-B (KMTJ)
09:08PM 39.1542 -106.5562 85° East 436 502 37,300 -2,400 Descending FlightAware ADS-B
09:08PM 39.1596 -106.4797 85° East 428 493 36,100 -2,460 Descending FlightAware ADS-B
09:09PM 39.1651 -106.4033 85° East 420 483 34,800 -2,400 Descending FlightAware ADS-B
09:10PM 39.1719 -106.3073 85° East 411 473 33,300 -2,220 Descending FlightAware ADS-B
09:10PM 39.1809 -106.2480 73° East 414 476 31,700 -1,980 Descending FlightAware ADS-B (KMTJ)
09:11PM 39.2149 -106.1288 70° East 383 441 30,800 -1,680 Descending FlightAware ADS-B
09:11PM 39.2323 -106.0662 70° East 369 425 30,000 -1,740 Descending FlightAware ADS-B (KEIK)
09:12PM 39.2497 -106.0044 70° East 360 414 29,100 -1,800 Descending FlightAware ADS-B (KEIK)
09:12PM 39.2678 -105.9398 70° East 357 411 28,200 -1,740 Descending FlightAware ADS-B
09:13PM 39.2924 -105.8513 70° East 362 417 26,900 -1,680 Descending FlightAware ADS-B
09:14PM 39.3122 -105.7807 70° East 361 415 26,000 -1,680 Descending FlightAware ADS-B
09:14PM 39.3294 -105.7195 70° East 356 410 25,100 -1,560 Descending FlightAware ADS-B (KEIK)
09:15PM 39.3622 -105.6009 70° East 352 405 23,600 -1,380 Descending FlightAware ADS-B (KEIK)
09:16PM 39.3826 -105.5273 70° East 349 402 23,000 -480 Descending FlightAware ADS-B (KEIK)
09:17PM 39.4125 -105.4525 51° Northeast 351 404 23,000 -360 Level FlightAware ADS-B (KEIK)
09:17PM 39.4442 -105.3995 50° Northeast 369 425 22,600 -1,080 Descending FlightAware ADS-B (KEIK)
09:17PM 39.4626 -105.3784 36° Northeast 373 429 22,200 -1,260 Descending FlightAware ADS-B (KFLY)
09:18PM 39.4889 -105.3621 19° North 370 426 21,900 -1,260 Descending FlightAware ADS-B (KEIK)
09:18PM 39.5401 -105.3387 20° North 365 420 21,200 -1,380 Descending FlightAware ADS-B (KEIK)
09:19PM 39.6060 -105.3090 19° North 365 420 20,300 -1,260 Descending FlightAware ADS-B (KBJC)
09:19PM 39.6554 -105.2870 19° North 362 417 19,700 -1,200 Descending FlightAware ADS-B (KEIK)
09:20PM 39.7045 -105.2654 19° North 357 411 19,100 -780 Descending FlightAware ADS-B (KBJC)
09:20PM 39.7531 -105.2439 19° North 342 394 18,900 -960 Descending FlightAware ADS-B (KEIK)
09:21PM 39.8009 -105.2228 19° North 341 392 18,100 -1,440 Descending FlightAware ADS-B (KEIK)
09:21PM 39.8509 -105.2005 19° North 331 381 17,300 -1,620 Descending FlightAware ADS-B (KBJC)
09:22PM 39.8939 -105.1814 19° North 321 369 16,300 -2,040 Descending FlightAware ADS-B (KBJC)
09:23PM 39.9344 -105.1634 19° North 312 359 15,200 -2,100 Descending FlightAware ADS-B (KBJC)
09:23PM 39.9876 -105.1398 19° North 294 338 14,000 -2,100 Descending FlightAware ADS-B (KEIK)
09:24PM 40.0281 -105.1217 19° North 282 325 12,800 -2,160 Descending FlightAware ADS-B (KEIK)
09:24PM 40.0722 -105.1020 19° North 284 327 11,600 -2,400 Descending FlightAware ADS-B (KEIK)
09:25PM 40.1321 -105.0751 19° North 285 328 9,400 -2,460 Descending FlightAware ADS-B (KEIK)
09:25PM 40.1586 -105.0633 19° North 282 325 8,800 -1,320 Descending FlightAware ADS-B (KEIK)
09:26PM 40.2037 -105.0430 19° North 254 292 8,200 -960 Descending FlightAware ADS-B (KEIK)
09:26PM 40.2230 -105.0344 19° North 240 276 7,900 -960 Descending FlightAware ADS-B (KEIK)
09:27PM 40.2440 -105.0250 19° North 222 255 7,600 -300 Descending FlightAware ADS-B (KEIK)
09:27PM 40.2829 -105.0074 19° North 172 198 7,600  Level FlightAware ADS-B (KEIK)
09:28PM 40.2975 -105.0004 20° North 152 175 7,600  Level FlightAware ADS-B (KEIK)
09:28PM 40.3065 -104.9964 18° North 121 139 7,600  Level FlightAware ADS-B (KEIK)
09:29PM 40.3239 -104.9891 18° North 115 132 7,600  Level FlightAware ADS-B (KEIK)
09:29PM 40.3325 -104.9852 19° North 112 129 7,600 -300 Level FlightAware ADS-B (KEIK)
09:29PM 40.3434 -104.9803 18° North 114 131 7,400 -840 Descending FlightAware ADS-B (KEIK)
09:30PM 40.3651 -104.9723 348° North 96 110 6,700 -780 Descending FlightAware ADS-B (KEIK)
09:30PM 40.3748 -104.9769 339° North 104 120 6,600 -300 Descending FlightAware ADS-B (KEIK)
09:31PM 40.3868 -104.9824 342° North 103 119 6,500 -240 Descending FlightAware ADS-B (KEIK)
09:31PM 40.3998 -104.9885 338° Northwest 106 122 6,400 -240 Descending FlightAware ADS-B (KEIK)
09:32PM 40.4103 -104.9933 342° North 102 117 6,300 -480 Descending FlightAware ADS-B (KEIK)
09:32PM 40.4189 -104.9973 342° North 99 114 6,100 -600 Descending FlightAware ADS-B (KEIK)
09:32PM 40.4277 -105.0014 340° North 97 112 5,900 -660 Descending FlightAware ADS-B (KEIK)
09:33PM 40.4355 -105.0050 340° North 98 113 5,700 -720 Descending FlightAware ADS-B (KEIK)